createdAt,value
2018-11-26T00:02:51.512Z,14.83
2018-11-26T00:07:03.502Z,13.60
2018-11-26T00:11:25.531Z,14.13
2018-11-26T00:15:38.142Z,13.13
2018-11-26T00:19:50.530Z,13.50
2018-11-26T00:24:02.819Z,13.27
2018-11-26T00:28:15.001Z,13.70
2018-11-26T00:32:27.202Z,13.20
2018-11-26T00:36:39.587Z,13.57
2018-11-26T00:40:52.847Z,11.80
2018-11-26T00:45:04.829Z,13.27
2018-11-26T00:49:16.841Z,11.23
2018-11-26T00:53:28.986Z,12.97
2018-11-26T00:57:41.109Z,12.53
2018-11-26T01:01:53.304Z,12.37
2018-11-26T01:06:05.581Z,12.47
2018-11-26T01:10:17.833Z,11.57
2018-11-26T01:14:30.247Z,11.73
2018-11-26T01:18:42.498Z,10.13
2018-11-26T01:22:54.680Z,11.17
2018-11-26T01:27:07.204Z,10.70
2018-11-26T01:31:19.386Z,10.60
2018-11-26T01:35:31.841Z,13.33
2018-11-26T01:39:43.895Z,10.70
2018-11-26T01:43:56.954Z,12.33
2018-11-26T01:48:09.264Z,10.03
2018-11-26T01:52:21.573Z,10.57
2018-11-26T01:56:33.816Z,11.40
2018-11-26T02:00:46.131Z,12.57
2018-11-26T02:04:58.206Z,13.17
2018-11-26T02:09:10.430Z,13.80
2018-11-26T02:13:22.723Z,15.47
2018-11-26T02:17:34.966Z,14.07
2018-11-26T02:21:47.177Z,13.07
2018-11-26T02:25:59.274Z,12.50
2018-11-26T02:30:11.926Z,12.27
2018-11-26T02:34:24.494Z,11.43
2018-11-26T02:38:36.602Z,10.13
2018-11-26T02:42:49.612Z,11.37
2018-11-26T02:47:02.257Z,13.60
2018-11-26T02:51:16.125Z,13.00
2018-11-26T02:55:28.066Z,12.80
2018-11-26T02:59:40.245Z,12.97
2018-11-26T03:03:52.313Z,13.20
2018-11-26T03:08:04.573Z,13.37
2018-11-26T03:12:16.753Z,12.70
2018-11-26T03:16:28.975Z,13.90
2018-11-26T03:20:41.438Z,12.73
2018-11-26T03:24:53.714Z,13.37
2018-11-26T03:29:06.214Z,12.90
2018-11-26T03:33:18.378Z,10.77
2018-11-26T03:37:30.666Z,12.27
2018-11-26T03:41:42.838Z,10.83
2018-11-26T03:45:55.055Z,13.70
2018-11-26T03:50:07.411Z,11.50
2018-11-26T03:54:19.427Z,11.13
2018-11-26T03:58:31.434Z,11.43
2018-11-26T04:02:43.607Z,10.53
2018-11-26T04:06:55.885Z,11.47
2018-11-26T04:11:08.449Z,11.23
2018-11-26T04:15:20.311Z,10.87
2018-11-26T04:19:32.379Z,10.77
2018-11-26T04:23:44.469Z,11.27
2018-11-26T04:27:56.479Z,10.60
2018-11-26T04:32:08.702Z,11.40
2018-11-26T04:36:20.772Z,10.77
2018-11-26T04:40:32.943Z,11.73
2018-11-26T04:44:44.943Z,10.63
2018-11-26T04:48:57.014Z,11.40
2018-11-26T04:53:10.632Z,10.40
2018-11-26T04:57:23.263Z,9.63
2018-11-26T05:01:35.647Z,11.27
2018-11-26T05:05:48.011Z,11.03
2018-11-26T05:10:00.439Z,11.63
2018-11-26T05:14:13.184Z,11.30
2018-11-26T05:18:25.720Z,12.07
2018-11-26T05:22:38.032Z,12.63
2018-11-26T05:26:50.422Z,12.70
2018-11-26T05:31:02.848Z,12.93
2018-11-26T05:35:15.075Z,12.57
2018-11-26T05:39:27.153Z,11.43
2018-11-26T05:43:41.513Z,11.73
2018-11-26T05:47:54.065Z,12.73
2018-11-26T05:52:06.525Z,12.20
2018-11-26T05:56:18.844Z,10.63
2018-11-26T06:01:34.282Z,9.33
2018-11-26T06:05:46.388Z,9.13
2018-11-26T06:10:01.883Z,9.37
2018-11-26T06:14:14.044Z,9.17
2018-11-26T06:18:25.993Z,8.13
2018-11-26T06:22:38.116Z,8.10
2018-11-26T06:26:50.208Z,10.20
2018-11-26T06:31:02.246Z,9.20
2018-11-26T06:35:20.574Z,10.83
2018-11-26T06:39:32.829Z,10.00
2018-11-26T06:43:45.197Z,10.17
2018-11-26T06:47:57.238Z,11.17
2018-11-26T06:52:09.272Z,10.93
2018-11-26T06:56:21.297Z,11.00
2018-11-26T07:00:33.463Z,12.27
2018-11-26T07:04:45.563Z,15.70
2018-11-26T07:08:57.759Z,15.47
2018-11-26T07:13:10.098Z,13.90
2018-11-26T07:17:22.304Z,13.53
2018-11-26T07:21:34.456Z,14.17
2018-11-26T07:25:46.524Z,14.60
2018-11-26T07:29:58.719Z,11.93
2018-11-26T07:34:10.835Z,10.60
2018-11-26T07:38:23.142Z,10.70
2018-11-26T07:42:35.430Z,10.50
2018-11-26T07:46:47.462Z,15.23
2018-11-26T07:50:59.654Z,18.50
2018-11-26T07:55:26.361Z,18.97
2018-11-26T07:59:38.326Z,12.43
2018-11-26T08:03:50.399Z,11.03
2018-11-26T08:08:03.168Z,11.63
2018-11-26T08:12:15.665Z,12.53
2018-11-26T08:16:28.195Z,11.80
2018-11-26T08:20:40.617Z,11.53
2018-11-26T08:24:52.657Z,13.50
2018-11-26T08:29:04.975Z,13.97
2018-11-26T08:33:17.180Z,15.83
2018-11-26T08:37:34.269Z,15.73
2018-11-26T08:41:56.545Z,14.83
2018-11-26T08:46:10.435Z,14.47
2018-11-26T08:50:22.517Z,13.97
2018-11-26T08:54:34.590Z,13.87
2018-11-26T08:58:46.715Z,13.93
2018-11-26T09:04:07.749Z,13.93
2018-11-26T09:08:19.820Z,13.07
2018-11-26T09:12:32.007Z,12.73
2018-11-26T09:16:44.137Z,12.80
2018-11-26T09:20:56.344Z,12.87
2018-11-26T09:25:12.256Z,12.63
2018-11-26T09:29:24.304Z,13.03
2018-11-26T09:33:36.299Z,13.70
2018-11-26T09:37:48.503Z,11.50
2018-11-26T09:42:00.619Z,11.27
2018-11-26T09:46:12.638Z,9.90
2018-11-26T09:50:25.274Z,11.67
2018-11-26T09:54:37.386Z,11.13
2018-11-26T09:58:49.535Z,11.23
2018-11-26T10:03:01.685Z,9.73
2018-11-26T10:07:13.728Z,9.73
2018-11-26T10:11:25.972Z,9.70
2018-11-26T10:15:38.055Z,14.87
2018-11-26T10:19:50.419Z,9.00
2018-11-26T10:24:02.599Z,7.43
2018-11-26T10:28:14.681Z,6.53
2018-11-26T10:32:26.894Z,7.83
2018-11-26T10:36:39.153Z,5.83
2018-11-26T10:40:51.316Z,6.10
2018-11-26T10:45:03.543Z,6.63
2018-11-26T10:49:15.870Z,6.47
2018-11-26T10:53:28.022Z,6.40
2018-11-26T10:57:40.167Z,5.83
2018-11-26T11:01:57.139Z,6.23
2018-11-26T11:06:09.523Z,6.20
2018-11-26T11:10:22.749Z,6.70
2018-11-26T11:14:35.057Z,5.80
2018-11-26T11:18:47.265Z,6.37
2018-11-26T11:22:59.642Z,5.60
2018-11-26T11:27:11.781Z,4.73
2018-11-26T11:31:24.143Z,4.63
2018-11-26T11:35:36.309Z,4.80
2018-11-26T11:39:48.495Z,6.57
2018-11-26T11:44:00.712Z,6.27
2018-11-26T11:48:12.963Z,5.90
2018-11-26T11:52:25.312Z,5.47
2018-11-26T11:56:37.618Z,5.33
2018-11-26T12:00:50.583Z,5.93
2018-11-26T12:05:02.671Z,5.63
2018-11-26T12:09:15.071Z,4.23
2018-11-26T12:13:27.154Z,6.43
2018-11-26T12:17:39.164Z,5.00
2018-11-26T12:21:51.482Z,4.30
2018-11-26T12:26:03.519Z,3.13
2018-11-26T12:30:17.066Z,3.23
2018-11-26T12:34:29.191Z,3.90
2018-11-26T12:38:41.463Z,3.67
2018-11-26T12:42:54.836Z,4.70
2018-11-26T12:47:07.193Z,3.90
2018-11-26T12:51:19.333Z,4.10
2018-11-26T12:55:31.582Z,4.07
2018-11-26T12:59:43.769Z,4.07
2018-11-26T13:03:56.015Z,3.90
2018-11-26T13:08:08.669Z,4.70
2018-11-26T13:12:20.772Z,4.67
2018-11-26T13:16:32.915Z,5.73
2018-11-26T13:20:45.005Z,5.57
2018-11-26T13:24:57.171Z,5.17
2018-11-26T13:29:09.532Z,3.37
2018-11-26T13:33:22.014Z,4.23
2018-11-26T13:37:34.008Z,4.33
2018-11-26T13:41:46.150Z,4.33
2018-11-26T13:45:58.462Z,4.33
2018-11-26T13:50:12.513Z,3.70
2018-11-26T13:54:24.539Z,3.77
2018-11-26T13:58:36.529Z,3.63
2018-11-26T14:02:49.070Z,3.80
2018-11-26T14:07:07.746Z,2.90
2018-11-26T14:11:21.008Z,3.13
2018-11-26T14:15:33.416Z,3.17
2018-11-26T14:19:45.320Z,3.80
2018-11-26T14:23:58.043Z,3.00
2018-11-26T14:28:10.911Z,2.93
2018-11-26T14:32:24.762Z,2.90
2018-11-26T14:36:36.843Z,3.10
2018-11-26T14:40:52.109Z,2.80
2018-11-26T14:45:05.689Z,3.00
2018-11-26T14:49:17.794Z,2.77
2018-11-26T14:53:32.351Z,3.33
2018-11-26T14:57:44.619Z,3.33
2018-11-26T15:01:56.997Z,3.27
2018-11-26T15:06:12.787Z,3.00
2018-11-26T15:10:26.648Z,3.63
2018-11-26T15:14:39.373Z,3.73
2018-11-26T15:18:51.515Z,3.80
2018-11-26T15:23:04.401Z,4.40
2018-11-26T15:27:16.476Z,5.30
2018-11-26T15:31:28.697Z,3.63
2018-11-26T15:35:40.750Z,2.70
2018-11-26T15:39:53.392Z,3.10
2018-11-26T15:44:05.699Z,3.10
2018-11-26T15:48:17.716Z,2.83
2018-11-26T15:52:30.174Z,2.40
2018-11-26T15:56:42.318Z,2.60
2018-11-26T16:00:54.682Z,3.00
2018-11-26T16:05:07.355Z,2.77
2018-11-26T16:09:19.550Z,3.27
2018-11-26T16:13:36.714Z,3.60
2018-11-26T16:17:49.229Z,4.13
2018-11-26T16:22:01.396Z,4.27
2018-11-26T16:26:13.415Z,5.10
2018-11-26T16:30:26.796Z,5.10
2018-11-26T16:34:39.103Z,4.87
2018-11-26T16:38:51.464Z,9.90
2018-11-26T16:43:06.349Z,11.57
2018-11-26T16:47:18.226Z,9.73
2018-11-26T16:51:30.449Z,6.47
2018-11-26T16:55:42.403Z,5.30
2018-11-26T16:59:54.571Z,3.93
2018-11-26T17:04:10.018Z,3.83
2018-11-26T17:08:22.089Z,3.53
2018-11-26T17:12:35.057Z,4.10
2018-11-26T17:16:47.463Z,4.23
2018-11-26T17:20:59.658Z,3.30
2018-11-26T17:25:15.783Z,4.13
2018-11-26T17:29:27.667Z,7.23
2018-11-26T17:33:39.884Z,10.30
2018-11-26T17:37:52.238Z,18.43
2018-11-26T17:42:04.300Z,19.83
2018-11-26T17:46:16.458Z,45.10
2018-11-26T17:50:33.679Z,35.93
2018-11-26T17:54:46.120Z,9.23
2018-11-26T17:58:58.378Z,8.07
2018-11-26T18:03:10.715Z,7.27
2018-11-26T18:07:22.896Z,7.50
2018-11-26T18:11:35.223Z,7.30
2018-11-26T18:15:47.348Z,8.30
2018-11-26T18:19:59.432Z,8.67
2018-11-26T18:24:11.624Z,8.80
2018-11-26T18:28:23.743Z,12.77
2018-11-26T18:32:36.056Z,14.47
2018-11-26T18:36:48.272Z,12.53
2018-11-26T18:41:00.623Z,24.23
2018-11-26T18:45:15.181Z,20.87
2018-11-26T18:49:27.544Z,19.53
2018-11-26T18:53:39.965Z,9.50
2018-11-26T18:57:52.399Z,8.43
2018-11-26T19:02:04.702Z,9.33
2018-11-26T19:06:16.923Z,14.90
2018-11-26T19:10:31.209Z,17.10
2018-11-26T19:14:43.218Z,13.83
2018-11-26T19:18:56.760Z,11.33
2018-11-26T19:23:09.004Z,11.73
2018-11-26T19:27:20.989Z,11.90
2018-11-26T19:31:33.262Z,12.90
2018-11-26T19:35:45.380Z,13.57
2018-11-26T19:39:57.478Z,13.57
2018-11-26T19:44:09.589Z,13.80
2018-11-26T19:48:21.815Z,14.50
2018-11-26T19:52:34.008Z,13.57
2018-11-26T19:56:46.112Z,13.77
2018-11-26T20:00:58.332Z,14.20
2018-11-26T20:05:12.934Z,14.70
2018-11-26T20:09:24.787Z,13.07
2018-11-26T20:13:36.868Z,14.00
2018-11-26T20:17:48.957Z,15.50
2018-11-26T20:22:01.047Z,16.63
2018-11-26T20:26:13.065Z,15.27
2018-11-26T20:30:25.182Z,15.10
2018-11-26T20:34:37.329Z,14.20
2018-11-26T20:38:49.762Z,15.63
2018-11-26T20:43:01.964Z,15.53
2018-11-26T20:47:14.075Z,18.40
2018-11-26T20:51:26.418Z,19.30
2018-11-26T20:55:38.509Z,18.77
2018-11-26T20:59:51.251Z,17.70
2018-11-26T21:04:03.199Z,21.60
2018-11-26T21:08:15.274Z,20.07
2018-11-26T21:12:27.576Z,20.80
2018-11-26T21:16:39.595Z,19.97
2018-11-26T21:20:52.953Z,22.10
2018-11-26T21:25:05.323Z,21.43
2018-11-26T21:29:17.392Z,17.87
2018-11-26T21:33:29.849Z,19.97
2018-11-26T21:37:42.601Z,20.03
2018-11-26T21:41:54.627Z,19.03
2018-11-26T21:46:07.018Z,17.70
2018-11-26T21:50:19.050Z,18.37
2018-11-26T21:54:31.135Z,19.20
2018-11-26T21:58:43.200Z,18.73
2018-11-26T22:02:55.530Z,18.23
2018-11-26T22:07:07.634Z,18.60
2018-11-26T22:11:19.667Z,20.13
2018-11-26T22:15:31.723Z,19.70
2018-11-26T22:19:43.956Z,20.30
2018-11-26T22:23:56.067Z,21.50
2018-11-26T22:28:09.348Z,20.37
2018-11-26T22:32:21.585Z,19.40
2018-11-26T22:36:33.887Z,18.20
2018-11-26T22:40:46.534Z,19.63
2018-11-26T22:44:58.678Z,17.10
2018-11-26T22:49:10.798Z,20.00
2018-11-26T22:53:22.947Z,20.40
2018-11-26T22:57:35.064Z,21.00
2018-11-26T23:01:47.298Z,19.37
2018-11-26T23:05:59.391Z,19.40
2018-11-26T23:10:11.989Z,18.33
2018-11-26T23:14:24.058Z,18.30
2018-11-26T23:18:36.040Z,17.63
2018-11-26T23:22:48.361Z,15.83
2018-11-26T23:27:00.388Z,16.00
2018-11-26T23:31:12.783Z,16.10
2018-11-26T23:35:24.885Z,16.27
2018-11-26T23:39:37.006Z,15.07
2018-11-26T23:43:49.025Z,16.07
2018-11-26T23:48:00.938Z,15.13
2018-11-26T23:52:13.078Z,14.93
2018-11-26T23:56:25.675Z,13.80
